Time;durP1;ratioP1;P1;durP2;ratioP2;P2;SDS_P1;SDS_P2;PMS_P1;PMS_P2;Temp;Humidity;BMP_temperature;BMP_pressure;BME280_temperature;BME280_humidity;BME280_pressure;Samples;Min_cycle;Max_cycle;Signal;HPM_P1;HPM_P2
2022/06/06 00:00:52;;;;;;;12.47;10.83;;;16.40;99.90;;;;;;5106376;28;20581;-82
2022/06/06 00:03:19;;;;;;;13.88;10.88;;;16.30;99.90;;;;;;5109636;28;20491;-82
2022/06/06 00:05:47;;;;;;;12.07;10.73;;;16.30;99.90;;;;;;5110617;28;20914;-82
2022/06/06 00:08:15;;;;;;;15.00;10.80;;;16.40;99.90;;;;;;5113073;27;20762;-82
2022/06/06 00:10:43;;;;;;;13.68;10.82;;;16.30;99.90;;;;;;5123220;27;20484;-82
2022/06/06 00:13:11;;;;;;;14.15;11.45;;;16.40;99.90;;;;;;5110232;28;20428;-81
2022/06/06 00:15:36;;;;;;;13.38;11.25;;;16.40;99.90;;;;;;5110188;28;20975;-82
2022/06/06 00:18:02;;;;;;;14.07;11.27;;;16.40;99.90;;;;;;5110374;28;20404;-82
2022/06/06 00:20:28;;;;;;;11.73;10.53;;;16.30;99.90;;;;;;5110293;28;20406;-82
2022/06/06 00:22:54;;;;;;;12.32;11.10;;;16.40;99.90;;;;;;5110784;28;20489;-81
2022/06/06 00:25:20;;;;;;;12.93;11.00;;;16.40;99.90;;;;;;5112994;27;20894;-81
2022/06/06 00:27:45;;;;;;;14.10;11.80;;;16.40;99.90;;;;;;5122791;27;20416;-81
2022/06/06 00:30:12;;;;;;;14.55;11.85;;;16.40;99.90;;;;;;5119459;27;20456;-82
2022/06/06 00:35:22;;;;;;;14.73;12.32;;;16.40;99.90;;;;;;5109590;28;20408;-81
2022/06/06 00:37:48;;;;;;;14.63;12.05;;;16.40;99.90;;;;;;5111857;27;20404;-81
2022/06/06 00:40:20;;;;;;;15.00;12.63;;;16.40;99.90;;;;;;5130569;27;20406;-81
2022/06/06 00:42:46;;;;;;;14.35;12.65;;;16.40;99.90;;;;;;5111165;27;20407;-81
2022/06/06 00:45:23;;;;;;;15.47;12.73;;;16.40;99.90;;;;;;5109636;28;20404;-81
2022/06/06 00:48:10;;;;;;;17.15;13.40;;;16.40;99.90;;;;;;5110120;27;20416;-81
2022/06/06 00:50:56;;;;;;;17.95;14.20;;;16.50;99.90;;;;;;5130089;27;20407;-82
2022/06/06 00:53:40;;;;;;;18.87;15.50;;;16.50;99.90;;;;;;5111919;27;20423;-82
2022/06/06 00:56:13;;;;;;;19.35;15.77;;;16.50;99.90;;;;;;5116009;27;20446;-82
2022/06/06 00:58:40;;;;;;;22.60;16.90;;;16.50;99.90;;;;;;5125905;27;20405;-82
2022/06/06 01:01:07;;;;;;;21.98;17.88;;;16.50;99.90;;;;;;5130478;27;20410;-83
2022/06/06 01:03:36;;;;;;;25.63;19.10;;;16.50;99.90;;;;;;5113510;27;20480;-82
2022/06/06 01:06:02;;;;;;;26.92;19.77;;;16.50;99.90;;;;;;5107722;27;20403;-82
2022/06/06 01:08:28;;;;;;;29.52;20.73;;;16.50;99.90;;;;;;5122550;27;20845;-82
2022/06/06 01:10:54;;;;;;;28.08;20.63;;;16.50;99.90;;;;;;5127972;27;20798;-82
2022/06/06 01:13:24;;;;;;;28.92;21.30;;;16.50;99.90;;;;;;5128734;27;20479;-83
2022/06/06 01:16:02;;;;;;;25.50;20.48;;;16.50;99.90;;;;;;5115232;27;20396;-82
2022/06/06 01:18:27;;;;;;;25.83;20.00;;;16.50;99.90;;;;;;5123347;27;20471;-82
2022/06/06 01:21:15;;;;;;;24.70;20.60;;;16.50;99.90;;;;;;5116411;27;20403;-82
2022/06/06 01:23:59;;;;;;;25.40;19.70;;;16.50;99.90;;;;;;5129750;27;20395;-82
2022/06/06 01:26:58;;;;;;;24.58;19.60;;;16.50;99.90;;;;;;5126840;27;20410;-82
2022/06/06 01:29:36;;;;;;;25.63;20.50;;;16.50;99.90;;;;;;5129042;27;20429;-82
2022/06/06 01:32:09;;;;;;;24.80;19.57;;;16.40;99.90;;;;;;5112049;27;20452;-82
2022/06/06 01:34:38;;;;;;;24.38;19.67;;;16.40;99.90;;;;;;5129848;27;20423;-82
2022/06/06 01:37:40;;;;;;;23.15;19.55;;;16.30;99.90;;;;;;5129156;27;20525;-82
2022/06/06 01:40:10;;;;;;;22.53;18.47;;;16.40;99.90;;;;;;5118867;27;20467;-82
2022/06/06 01:42:40;;;;;;;21.15;17.08;;;16.20;99.90;;;;;;5126764;27;20406;-82
2022/06/06 01:45:21;;;;;;;20.30;16.45;;;16.20;99.90;;;;;;5117117;27;20445;-82
2022/06/06 01:47:57;;;;;;;23.48;16.80;;;16.20;99.90;;;;;;5123550;27;20407;-81
2022/06/06 01:50:24;;;;;;;23.23;17.23;;;16.10;99.90;;;;;;5119863;27;20905;-81
2022/06/06 01:52:57;;;;;;;25.70;18.67;;;16.10;99.90;;;;;;5113995;27;20425;-80
2022/06/06 01:55:25;;;;;;;25.02;17.70;;;16.10;99.90;;;;;;5120619;27;20407;-81
2022/06/06 01:57:53;;;;;;;26.83;19.20;;;16.00;99.90;;;;;;5121740;27;20476;-81
2022/06/06 02:00:20;;;;;;;25.25;18.40;;;16.00;99.90;;;;;;5121547;27;20904;-80
2022/06/06 02:02:45;;;;;;;27.92;18.88;;;15.90;99.90;;;;;;5123093;27;20488;-81
2022/06/06 02:05:13;;;;;;;27.63;18.83;;;15.90;99.90;;;;;;5127290;27;20875;-81
2022/06/06 02:07:40;;;;;;;25.92;17.88;;;15.90;99.90;;;;;;5128902;27;20738;-80
2022/06/06 02:10:09;;;;;;;28.83;19.33;;;15.90;99.90;;;;;;5128513;27;20395;-80
2022/06/06 02:12:36;;;;;;;24.43;16.67;;;15.80;99.90;;;;;;5126650;27;20429;-81
2022/06/06 02:15:04;;;;;;;27.07;17.10;;;15.80;99.90;;;;;;5117173;27;20399;-81
2022/06/06 02:17:30;;;;;;;26.60;17.47;;;15.70;99.90;;;;;;5129681;27;20402;-80
2022/06/06 02:19:55;;;;;;;32.58;19.33;;;15.70;99.90;;;;;;5122546;27;20445;-80
2022/06/06 02:22:22;;;;;;;27.38;17.95;;;15.60;99.90;;;;;;5126233;27;20402;-80
2022/06/06 02:24:48;;;;;;;27.70;17.52;;;15.50;99.90;;;;;;5127526;27;20403;-81
2022/06/06 02:27:14;;;;;;;24.95;16.95;;;15.50;99.90;;;;;;5125074;27;20494;-80
2022/06/06 02:29:40;;;;;;;29.15;16.40;;;15.50;99.90;;;;;;5127382;27;20486;-80
2022/06/06 02:32:08;;;;;;;23.50;14.87;;;15.50;99.90;;;;;;5120228;27;20495;-80
2022/06/06 02:34:34;;;;;;;23.90;15.17;;;15.40;99.90;;;;;;5122940;27;20887;-80
2022/06/06 02:37:01;;;;;;;26.25;16.13;;;15.30;99.90;;;;;;5129467;27;20821;-80
2022/06/06 02:39:27;;;;;;;24.70;15.38;;;15.20;99.90;;;;;;5114886;27;20387;-80
2022/06/06 02:41:53;;;;;;;25.90;15.35;;;15.20;99.90;;;;;;5127848;27;20482;-81
2022/06/06 02:44:18;;;;;;;23.00;14.15;;;15.20;99.90;;;;;;5127818;27;20435;-80
2022/06/06 02:46:44;;;;;;;22.00;13.63;;;15.10;99.90;;;;;;5127312;27;20969;-81
2022/06/06 02:49:09;;;;;;;24.10;13.33;;;15.10;99.90;;;;;;5127967;27;20399;-80
2022/06/06 02:51:35;;;;;;;16.23;10.70;;;15.00;99.90;;;;;;5122626;27;20959;-80
2022/06/06 02:54:02;;;;;;;14.90;10.20;;;15.00;99.90;;;;;;5119836;27;20434;-80
2022/06/06 02:56:28;;;;;;;18.53;10.03;;;14.90;99.90;;;;;;5110550;28;20452;-81
2022/06/06 02:59:02;;;;;;;15.80;9.60;;;14.80;99.90;;;;;;5127911;27;20395;-80
2022/06/06 03:01:28;;;;;;;17.42;9.88;;;14.80;99.90;;;;;;5127388;27;20912;-81
2022/06/06 03:03:53;;;;;;;16.80;9.33;;;14.70;99.90;;;;;;5129013;27;20406;-80
2022/06/06 03:06:31;;;;;;;16.50;9.60;;;14.70;99.90;;;;;;5126395;27;20399;-80
2022/06/06 03:09:08;;;;;;;16.67;9.85;;;14.60;99.90;;;;;;5115779;27;20414;-80
2022/06/06 03:12:03;;;;;;;15.27;9.43;;;14.60;99.90;;;;;;5127545;28;20443;-80
2022/06/06 03:14:55;;;;;;;14.80;9.25;;;14.50;99.90;;;;;;5115316;27;20485;-80
2022/06/06 03:20:47;;;;;;;14.02;9.23;;;14.60;99.90;;;;;;5127216;27;20415;-80
2022/06/06 03:23:26;;;;;;;16.13;9.07;;;14.50;99.90;;;;;;5126559;28;20414;-81
2022/06/06 03:25:55;;;;;;;13.90;9.18;;;14.50;99.90;;;;;;5118431;28;20434;-81
2022/06/06 03:28:26;;;;;;;16.42;9.07;;;14.50;99.90;;;;;;5122136;27;20846;-81
2022/06/06 03:30:52;;;;;;;12.60;8.60;;;14.50;99.90;;;;;;5118516;27;20412;-81
2022/06/06 03:34:00;;;;;;;12.83;9.30;;;14.50;99.90;;;;;;5106103;28;20929;-81
2022/06/06 03:36:31;;;;;;;11.77;9.18;;;14.50;99.90;;;;;;5113431;27;20474;-81
2022/06/06 03:39:14;;;;;;;12.20;9.38;;;14.50;99.90;;;;;;5131272;27;20432;-81
2022/06/06 03:41:55;;;;;;;11.80;9.60;;;14.50;99.90;;;;;;5113046;27;20421;-81
2022/06/06 03:44:29;;;;;;;15.48;10.55;;;14.50;99.90;;;;;;5127006;27;20922;-81
2022/06/06 03:47:06;;;;;;;17.40;10.37;;;14.50;99.90;;;;;;5109801;27;20443;-81
2022/06/06 03:49:38;;;;;;;13.38;9.65;;;14.50;99.90;;;;;;5130348;27;20463;-80
2022/06/06 03:52:27;;;;;;;14.95;9.73;;;14.50;99.90;;;;;;5111778;27;20416;-81
2022/06/06 03:55:32;;;;;;;12.48;9.88;;;14.40;99.90;;;;;;5123319;27;20503;-81
2022/06/06 03:58:01;;;;;;;15.18;10.05;;;14.40;99.90;;;;;;5110592;28;20409;-81
2022/06/06 04:00:27;;;;;;;13.38;10.18;;;14.40;99.90;;;;;;5111349;28;20400;-81
2022/06/06 04:02:55;;;;;;;13.95;10.18;;;14.50;99.90;;;;;;5105555;27;20452;-80
2022/06/06 04:05:22;;;;;;;16.38;10.50;;;14.50;99.90;;;;;;5111737;28;20967;-81
2022/06/06 04:07:48;;;;;;;15.50;10.57;;;14.40;99.90;;;;;;5110043;28;20449;-81
2022/06/06 04:10:15;;;;;;;16.10;11.20;;;14.50;99.90;;;;;;5111542;28;20432;-81
2022/06/06 04:12:56;;;;;;;17.80;11.85;;;14.50;99.90;;;;;;5122555;27;20430;-80
2022/06/06 04:16:05;;;;;;;14.88;11.55;;;14.50;99.90;;;;;;5093270;28;20922;-81
2022/06/06 04:18:52;;;;;;;15.85;11.82;;;14.50;99.90;;;;;;5125799;27;20426;-80
2022/06/06 04:21:26;;;;;;;14.27;10.00;;;14.50;99.90;;;;;;5118667;27;20438;-81
2022/06/06 04:24:09;;;;;;;16.80;11.23;;;14.50;99.90;;;;;;5109860;28;20409;-80
2022/06/06 04:26:53;;;;;;;15.02;10.38;;;14.50;99.90;;;;;;5109949;28;20420;-80
2022/06/06 04:29:43;;;;;;;13.48;9.85;;;14.50;99.90;;;;;;5109824;28;20412;-81
2022/06/06 04:32:21;;;;;;;13.43;9.25;;;14.50;99.90;;;;;;5111041;28;20415;-81
2022/06/06 04:35:24;;;;;;;12.98;8.80;;;14.50;99.90;;;;;;5109449;28;20419;-81
2022/06/06 04:38:14;;;;;;;12.23;9.35;;;14.50;99.90;;;;;;5119121;27;20938;-81
2022/06/06 04:40:52;;;;;;;13.10;8.52;;;14.50;99.90;;;;;;5115574;27;20411;-81
2022/06/06 04:43:26;;;;;;;11.50;8.23;;;14.50;99.90;;;;;;5100846;28;20419;-81
2022/06/06 04:46:28;;;;;;;9.90;8.10;;;14.50;99.90;;;;;;5115748;27;20406;-82
2022/06/06 04:48:55;;;;;;;9.60;7.80;;;14.50;99.90;;;;;;5112589;27;20409;-81
2022/06/06 04:51:22;;;;;;;11.02;8.18;;;14.50;99.90;;;;;;5109152;28;20909;-81
2022/06/06 04:53:52;;;;;;;10.68;7.90;;;14.50;99.90;;;;;;5120849;27;20419;-80
2022/06/06 04:56:20;;;;;;;9.10;7.47;;;14.50;99.90;;;;;;5109304;28;20513;-81
2022/06/06 04:58:48;;;;;;;9.48;7.70;;;14.50;99.90;;;;;;5122106;27;20411;-81
2022/06/06 05:01:15;;;;;;;10.52;8.32;;;14.50;99.90;;;;;;5125097;27;20407;-81
2022/06/06 05:03:41;;;;;;;10.93;7.72;;;14.60;99.90;;;;;;5110403;28;20392;-80
2022/06/06 05:06:22;;;;;;;11.48;8.05;;;14.60;99.90;;;;;;5124773;27;20813;-81
2022/06/06 05:09:25;;;;;;;8.50;6.90;;;14.60;99.90;;;;;;5109099;28;20488;-80
2022/06/06 05:12:09;;;;;;;9.73;7.20;;;14.60;99.90;;;;;;5109100;28;20419;-81
2022/06/06 05:15:03;;;;;;;8.75;7.05;;;14.60;99.90;;;;;;5111509;27;20408;-80
2022/06/06 05:17:50;;;;;;;8.45;6.60;;;14.60;99.90;;;;;;5117648;27;20401;-81
2022/06/06 05:20:29;;;;;;;7.53;6.28;;;14.60;99.90;;;;;;5109178;28;20408;-80
2022/06/06 05:23:18;;;;;;;9.15;6.00;;;14.60;99.90;;;;;;5108364;28;20416;-80
2022/06/06 05:26:40;;;;;;;8.27;6.03;;;14.60;99.90;;;;;;5108860;28;20405;-80
2022/06/06 05:29:39;;;;;;;5.80;5.07;;;14.60;99.90;;;;;;5101117;28;20430;-80
2022/06/06 05:32:31;;;;;;;4.80;4.10;;;14.70;99.90;;;;;;5108465;28;20475;-80
2022/06/06 05:35:04;;;;;;;5.05;3.20;;;14.60;99.90;;;;;;5110790;27;20408;-80
2022/06/06 05:37:32;;;;;;;4.45;2.60;;;14.60;99.90;;;;;;5120010;27;20487;-80
2022/06/06 05:40:06;;;;;;;7.05;3.42;;;14.60;99.90;;;;;;5109901;28;20408;-80
2022/06/06 05:42:41;;;;;;;4.97;2.95;;;14.60;99.90;;;;;;5117196;27;20434;-80
2022/06/06 05:45:32;;;;;;;4.57;3.20;;;14.60;99.90;;;;;;5114172;27;20770;-80
2022/06/06 05:48:01;;;;;;;6.00;3.67;;;14.50;99.90;;;;;;5109270;28;20393;-79
2022/06/06 05:50:59;;;;;;;6.68;4.20;;;14.50;99.90;;;;;;5111790;27;20481;-80
2022/06/06 05:53:36;;;;;;;8.38;4.43;;;14.50;99.90;;;;;;5122584;27;20431;-80
2022/06/06 05:56:26;;;;;;;7.38;4.75;;;14.50;99.90;;;;;;5109834;27;20920;-80
2022/06/06 05:59:11;;;;;;;7.47;4.78;;;14.40;99.90;;;;;;5108248;28;20412;-80
2022/06/06 06:01:40;;;;;;;6.78;4.80;;;14.40;99.90;;;;;;5112489;27;20409;-80
2022/06/06 06:04:33;;;;;;;7.35;4.72;;;14.50;99.90;;;;;;5091067;28;20413;-80
2022/06/06 06:07:17;;;;;;;9.33;5.40;;;14.40;99.90;;;;;;5118644;27;20770;-80
2022/06/06 06:10:11;;;;;;;8.37;5.30;;;14.40;99.90;;;;;;5107582;28;20495;-80
2022/06/06 06:13:02;;;;;;;9.85;5.35;;;14.40;99.90;;;;;;5122236;27;20419;-80
2022/06/06 06:15:44;;;;;;;8.10;5.38;;;14.30;99.90;;;;;;5118700;27;20835;-79
2022/06/06 06:18:34;;;;;;;10.73;5.30;;;14.30;99.90;;;;;;5090590;28;20439;-79
2022/06/06 06:21:07;;;;;;;9.32;4.78;;;14.40;99.90;;;;;;5107636;28;20811;-79
2022/06/06 06:23:35;;;;;;;7.77;4.63;;;14.40;99.90;;;;;;5107732;28;20458;-80
2022/06/06 06:26:04;;;;;;;7.75;4.88;;;14.30;99.90;;;;;;5090958;28;20901;-79
2022/06/06 06:28:33;;;;;;;7.38;4.88;;;14.30;99.90;;;;;;5122037;27;20401;-80
2022/06/06 06:31:24;;;;;;;8.15;4.80;;;14.40;99.90;;;;;;5108604;28;20906;-79
2022/06/06 06:34:08;;;;;;;9.10;4.93;;;14.40;99.90;;;;;;5115586;27;20819;-79
2022/06/06 06:37:15;;;;;;;8.48;5.20;;;14.40;99.90;;;;;;5127765;27;20407;-80
2022/06/06 06:39:50;;;;;;;8.85;5.07;;;14.40;99.90;;;;;;5070345;28;20918;-79
2022/06/06 06:42:47;;;;;;;9.73;5.47;;;14.40;99.90;;;;;;5107637;28;20475;-79
2022/06/06 06:45:23;;;;;;;9.07;5.65;;;14.40;99.90;;;;;;5107698;28;20435;-79
2022/06/06 06:47:54;;;;;;;8.73;5.40;;;14.40;99.90;;;;;;5107349;28;20920;-80
2022/06/06 06:50:30;;;;;;;10.88;6.28;;;14.40;99.90;;;;;;5090707;28;20423;-79
2022/06/06 06:53:33;;;;;;;9.70;5.95;;;14.40;99.90;;;;;;5111254;27;20948;-79
2022/06/06 06:56:17;;;;;;;10.35;6.55;;;14.40;99.90;;;;;;5109040;27;20469;-80
2022/06/06 06:59:32;;;;;;;9.88;6.13;;;14.40;99.90;;;;;;5107486;28;21730;-79
2022/06/06 07:08:50;;;;;;;8.85;5.63;;;14.30;99.90;;;;;;5107068;28;20454;-80
2022/06/06 07:12:03;;;;;;;7.65;5.28;;;14.40;99.90;;;;;;5110380;28;20410;-80
2022/06/06 07:14:44;;;;;;;7.82;4.72;;;14.40;99.90;;;;;;5130751;27;20927;-79
2022/06/06 07:17:11;;;;;;;6.57;3.92;;;14.50;99.90;;;;;;5111275;28;20481;-79
2022/06/06 07:20:09;;;;;;;5.90;3.15;;;14.50;99.90;;;;;;5112540;28;20446;-79
2022/06/06 07:23:00;;;;;;;5.18;3.08;;;14.60;99.90;;;;;;5120353;27;20403;-80
2022/06/06 07:25:28;;;;;;;4.72;2.70;;;14.70;99.90;;;;;;5110931;28;20400;-79
2022/06/06 07:27:53;;;;;;;5.57;3.50;;;14.70;99.90;;;;;;5111123;28;20491;-80
2022/06/06 07:30:21;;;;;;;4.85;2.90;;;14.80;99.90;;;;;;5110980;28;20487;-80
2022/06/06 07:33:09;;;;;;;5.67;3.10;;;14.90;99.90;;;;;;5110399;28;20504;-80
2022/06/06 07:35:49;;;;;;;6.68;3.10;;;15.00;99.90;;;;;;5118477;27;20490;-79
2022/06/06 07:38:39;;;;;;;5.35;2.97;;;15.10;99.90;;;;;;5115646;27;20415;-79
2022/06/06 07:41:14;;;;;;;5.45;2.60;;;15.10;99.90;;;;;;5110865;28;20430;-79
2022/06/06 07:44:05;;;;;;;6.07;2.88;;;15.10;99.90;;;;;;5112073;28;20495;-79
2022/06/06 07:47:05;;;;;;;4.63;3.03;;;15.10;99.90;;;;;;5110630;28;20415;-79
2022/06/06 07:49:49;;;;;;;5.60;2.63;;;15.10;99.90;;;;;;5111115;28;20527;-79
2022/06/06 07:52:44;;;;;;;5.68;3.00;;;15.20;99.90;;;;;;5109960;28;20400;-79
2022/06/06 07:55:31;;;;;;;5.28;2.70;;;15.20;99.90;;;;;;5111511;28;20400;-79
2022/06/06 07:58:02;;;;;;;6.70;3.08;;;15.20;99.90;;;;;;5117792;27;20416;-80
2022/06/06 08:00:28;;;;;;;7.10;2.90;;;15.30;99.90;;;;;;5111230;27;20559;-80
2022/06/06 08:02:59;;;;;;;5.25;2.75;;;15.50;99.90;;;;;;5115550;27;20406;-81
2022/06/06 08:05:43;;;;;;;4.55;2.65;;;15.50;99.90;;;;;;5109491;27;20466;-79
2022/06/06 08:08:16;;;;;;;5.57;2.80;;;15.50;99.90;;;;;;5112131;27;20506;-79
2022/06/06 08:10:47;;;;;;;5.22;2.80;;;15.60;99.90;;;;;;5112566;27;20412;-78
2022/06/06 08:13:35;;;;;;;5.13;2.88;;;15.70;99.90;;;;;;5110586;27;20428;-79
2022/06/06 08:16:20;;;;;;;5.30;2.47;;;15.80;99.90;;;;;;5108638;27;20419;-78
2022/06/06 08:19:01;;;;;;;4.35;2.30;;;15.90;99.90;;;;;;5109973;27;20431;-78
2022/06/06 08:21:54;;;;;;;4.10;1.98;;;16.10;99.90;;;;;;5112040;27;20397;-78
2022/06/06 08:24:22;;;;;;;4.10;2.13;;;16.40;99.90;;;;;;5108819;27;20788;-79
2022/06/06 08:26:51;;;;;;;4.85;1.90;;;16.50;99.90;;;;;;5113051;27;20415;-79
2022/06/06 08:29:17;;;;;;;7.60;2.28;;;16.50;99.90;;;;;;5120657;27;20414;-78
2022/06/06 08:31:43;;;;;;;4.20;2.00;;;16.50;99.90;;;;;;5130914;27;20422;-77
2022/06/06 08:34:09;;;;;;;5.68;2.28;;;16.40;99.90;;;;;;5113804;27;20424;-78
2022/06/06 08:36:49;;;;;;;6.70;2.55;;;16.40;99.90;;;;;;5122837;27;20867;-78
2022/06/06 08:39:30;;;;;;;4.13;2.47;;;16.40;99.90;;;;;;5131142;27;20765;-78
2022/06/06 08:41:59;;;;;;;5.90;2.67;;;16.40;99.90;;;;;;5123548;27;20958;-77
2022/06/06 08:44:43;;;;;;;5.28;2.60;;;16.50;99.90;;;;;;5120451;27;20432;-78
2022/06/06 08:47:26;;;;;;;6.18;2.53;;;16.70;99.90;;;;;;5127740;27;21257;-78
2022/06/06 08:53:20;;;;;;;4.77;3.00;;;17.10;99.90;;;;;;5124286;27;20418;-78
2022/06/06 08:56:07;;;;;;;5.07;3.33;;;17.30;99.90;;;;;;5129644;27;20414;-78
2022/06/06 08:58:36;;;;;;;6.03;3.08;;;17.40;99.90;;;;;;5123713;27;20481;-78
2022/06/06 09:01:11;;;;;;;7.38;3.78;;;17.40;99.90;;;;;;5123588;27;20435;-79
2022/06/06 09:04:04;;;;;;;5.55;3.20;;;17.40;99.90;;;;;;5126363;27;20467;-78
2022/06/06 09:06:41;;;;;;;6.68;3.30;;;17.30;99.90;;;;;;5130943;27;20407;-78
2022/06/06 09:09:45;;;;;;;6.47;2.95;;;17.20;99.90;;;;;;5130721;27;20414;-78
2022/06/06 09:12:50;;;;;;;5.40;2.78;;;17.40;99.90;;;;;;5120050;27;20494;-78
2022/06/06 09:15:35;;;;;;;5.90;2.95;;;17.50;99.90;;;;;;5120483;27;20471;-78
2022/06/06 09:18:22;;;;;;;5.07;2.83;;;17.70;99.90;;;;;;5128959;27;20407;-79
2022/06/06 09:21:06;;;;;;;6.13;2.90;;;17.80;99.90;;;;;;5127309;27;20983;-79
2022/06/06 09:23:57;;;;;;;6.07;2.60;;;18.10;99.90;;;;;;5114895;27;20517;-79
2022/06/06 09:26:45;;;;;;;6.43;2.72;;;18.40;99.90;;;;;;5129155;27;20490;-78
2022/06/06 09:29:48;;;;;;;4.05;2.30;;;18.80;99.90;;;;;;5127393;27;20475;-78
2022/06/06 09:32:51;;;;;;;4.47;2.55;;;19.30;99.90;;;;;;5117750;27;20406;-79
2022/06/06 09:35:39;;;;;;;6.82;2.95;;;19.40;99.90;;;;;;5128652;27;20410;-79
2022/06/06 09:38:31;;;;;;;4.57;2.55;;;19.50;99.90;;;;;;5123622;27;20407;-78
2022/06/06 09:41:35;;;;;;;5.93;2.60;;;19.50;99.90;;;;;;5118352;27;20411;-79
2022/06/06 09:44:23;;;;;;;5.50;2.80;;;19.10;99.90;;;;;;5093787;28;20503;-78
2022/06/06 09:47:17;;;;;;;6.90;2.90;;;18.80;99.90;;;;;;5126857;27;20406;-79
2022/06/06 09:50:35;;;;;;;5.65;2.83;;;18.60;99.90;;;;;;5111920;27;20847;-78
2022/06/06 09:53:15;;;;;;;6.00;2.58;;;18.40;99.90;;;;;;5080202;28;20521;-78
2022/06/06 09:59:13;;;;;;;5.78;2.35;;;18.10;99.90;;;;;;5128718;27;20968;-79
2022/06/06 10:02:06;;;;;;;4.20;1.60;;;18.10;99.90;;;;;;5129575;27;20399;-79
2022/06/06 10:05:01;;;;;;;4.10;1.23;;;18.20;99.90;;;;;;5128291;27;20865;-78
2022/06/06 10:07:27;;;;;;;2.92;1.00;;;18.60;99.90;;;;;;5108579;27;20428;-79
2022/06/06 10:09:58;;;;;;;4.47;1.10;;;19.10;99.90;;;;;;5123152;27;20419;-79
2022/06/06 10:12:46;;;;;;;4.57;0.93;;;19.60;99.90;;;;;;5127751;27;20438;-79
2022/06/06 10:15:26;;;;;;;6.05;1.25;;;20.00;99.90;;;;;;5121149;27;20921;-79
2022/06/06 10:18:05;;;;;;;6.43;1.02;;;20.50;99.90;;;;;;5115436;27;20806;-78
2022/06/06 10:20:46;;;;;;;4.05;0.88;;;20.90;99.90;;;;;;5109013;28;21014;-78
2022/06/06 10:23:32;;;;;;;6.30;0.90;;;21.30;99.90;;;;;;5121079;27;20506;-79
2022/06/06 10:26:27;;;;;;;3.05;0.77;;;21.60;99.90;;;;;;5119454;27;20468;-79
2022/06/06 10:32:46;;;;;;;2.75;0.80;;;22.20;99.90;;;;;;5117683;27;20427;-79
2022/06/06 10:35:14;;;;;;;6.03;0.90;;;22.40;99.90;;;;;;5112570;27;20415;-79
2022/06/06 10:37:46;;;;;;;5.22;0.90;;;22.30;99.60;;;;;;5122373;27;20411;-79
2022/06/06 10:40:38;;;;;;;3.95;0.88;;;22.20;98.20;;;;;;5119337;27;20407;-76
2022/06/06 10:43:36;;;;;;;6.65;0.80;;;21.90;96.90;;;;;;5116321;27;20434;-79
2022/06/06 10:46:14;;;;;;;3.83;0.95;;;21.80;98.70;;;;;;5088136;28;20416;-79
2022/06/06 10:49:19;;;;;;;4.47;0.90;;;21.90;99.00;;;;;;5105785;28;20408;-79
2022/06/06 10:51:57;;;;;;;4.25;0.60;;;22.00;99.90;;;;;;5086763;28;20832;-79
2022/06/06 10:54:26;;;;;;;3.00;0.60;;;22.20;99.90;;;;;;5105463;28;20439;-79
2022/06/06 10:57:22;;;;;;;4.10;0.60;;;22.50;99.90;;;;;;5109818;27;20407;-80
2022/06/06 11:00:22;;;;;;;5.00;0.73;;;22.70;96.20;;;;;;5105968;28;20843;-79
2022/06/06 11:03:09;;;;;;;6.03;0.77;;;22.60;96.20;;;;;;5105874;28;20501;-79
2022/06/06 11:05:52;;;;;;;3.65;0.70;;;22.50;95.40;;;;;;5108638;28;20419;-79
2022/06/06 11:08:30;;;;;;;3.55;0.50;;;22.30;97.20;;;;;;5110068;28;20415;-79
2022/06/06 11:11:32;;;;;;;4.45;0.68;;;22.20;96.60;;;;;;5111625;28;20902;-79
2022/06/06 11:14:32;;;;;;;2.63;0.50;;;22.40;96.30;;;;;;5108422;27;20806;-79
2022/06/06 11:17:34;;;;;;;3.15;0.52;;;22.70;95.90;;;;;;5107634;28;20404;-79
2022/06/06 11:20:31;;;;;;;3.47;0.60;;;22.90;96.10;;;;;;5110679;28;20402;-79
2022/06/06 11:23:34;;;;;;;3.53;0.70;;;22.90;95.70;;;;;;5115869;28;20416;-80
2022/06/06 11:26:19;;;;;;;3.83;0.60;;;22.90;95.80;;;;;;5112056;28;20413;-79
2022/06/06 11:29:10;;;;;;;4.10;0.90;;;22.90;95.40;;;;;;5117954;27;20425;-79
2022/06/06 11:32:20;;;;;;;6.28;0.80;;;22.90;94.90;;;;;;5111924;28;20474;-79
2022/06/06 11:35:40;;;;;;;3.63;0.85;;;23.10;96.40;;;;;;5062421;28;20944;-79
2022/06/06 11:38:55;;;;;;;3.77;0.87;;;23.10;95.50;;;;;;5040030;28;20433;-79
2022/06/06 11:41:45;;;;;;;4.93;1.08;;;22.70;95.00;;;;;;5128019;27;20410;-79
2022/06/06 11:44:32;;;;;;;3.50;1.05;;;22.10;96.40;;;;;;5122895;27;20922;-80
2022/06/06 11:47:33;;;;;;;4.18;1.00;;;21.60;99.60;;;;;;5117582;27;20808;-79
2022/06/06 11:50:43;;;;;;;2.50;0.80;;;20.90;99.50;;;;;;5125508;27;20411;-78
2022/06/06 11:53:28;;;;;;;3.90;0.98;;;20.50;99.90;;;;;;5100963;27;20456;-80
2022/06/06 11:56:06;;;;;;;3.55;0.65;;;20.30;99.90;;;;;;5120351;27;20776;-79
2022/06/06 11:58:32;;;;;;;3.10;0.60;;;20.10;99.90;;;;;;5116011;27;20406;-79
2022/06/06 12:01:22;;;;;;;3.15;0.70;;;20.00;99.90;;;;;;5120867;27;20429;-79
2022/06/06 12:04:06;;;;;;;3.65;0.70;;;20.00;99.90;;;;;;5116333;27;20924;-79
2022/06/06 12:06:53;;;;;;;4.00;0.63;;;20.10;99.90;;;;;;5116422;27;20404;-79
2022/06/06 12:09:33;;;;;;;3.50;0.50;;;20.30;99.80;;;;;;5125515;27;20473;-79
2022/06/06 12:12:23;;;;;;;3.90;0.63;;;20.50;99.70;;;;;;5113430;27;20413;-79
2022/06/06 12:15:33;;;;;;;3.30;0.70;;;20.80;98.50;;;;;;5130628;27;20415;-79
2022/06/06 12:18:30;;;;;;;2.57;0.70;;;20.80;98.70;;;;;;5092576;27;20805;-80
2022/06/06 12:21:18;;;;;;;3.03;0.80;;;20.70;99.90;;;;;;5130858;27;20415;-79
2022/06/06 12:24:05;;;;;;;2.05;0.52;;;20.60;99.90;;;;;;5130854;27;20429;-79
2022/06/06 12:26:45;;;;;;;3.22;0.95;;;20.70;99.90;;;;;;5119672;27;20430;-79
2022/06/06 12:29:50;;;;;;;2.97;0.50;;;21.10;99.90;;;;;;5121066;27;20468;-79
2022/06/06 12:32:21;;;;;;;2.40;0.40;;;21.70;99.90;;;;;;5120106;27;20458;-79
2022/06/06 12:35:16;;;;;;;2.73;0.50;;;22.20;98.30;;;;;;5116592;27;20412;-79
2022/06/06 12:37:53;;;;;;;3.83;0.50;;;22.20;96.50;;;;;;5100403;27;20402;-79
2022/06/06 12:40:36;;;;;;;3.08;0.50;;;22.10;96.20;;;;;;5131605;27;20407;-79
2022/06/06 12:43:44;;;;;;;1.95;0.50;;;22.00;95.70;;;;;;5128283;27;20545;-79
2022/06/06 12:46:43;;;;;;;2.60;0.40;;;21.70;95.00;;;;;;5081443;28;20922;-79
2022/06/06 12:49:21;;;;;;;1.52;0.52;;;21.60;95.40;;;;;;5129344;27;20422;-79
2022/06/06 12:52:08;;;;;;;3.90;0.60;;;21.50;96.30;;;;;;5129927;27;20407;-79
2022/06/06 12:57:51;;;;;;;2.70;0.65;;;21.30;97.20;;;;;;5130136;27;20799;-80
2022/06/06 13:01:37;;;;;;;4.65;0.90;;;21.20;97.30;;;;;;5130186;27;20499;-79
2022/06/06 13:03:21;;;;;;;2.80;0.50;;;21.10;97.00;;;;;;5120354;27;20406;-79
2022/06/06 13:06:05;;;;;;;4.30;0.90;;;20.90;97.40;;;;;;5129572;27;20427;-79
2022/06/06 13:08:56;;;;;;;3.65;0.70;;;20.80;96.40;;;;;;5131203;27;20409;-79
2022/06/06 13:11:21;;;;;;;3.08;0.68;;;20.50;97.20;;;;;;5121602;27;20474;-79
2022/06/06 13:13:53;;;;;;;3.07;0.57;;;20.30;97.80;;;;;;5123356;27;20457;-79
2022/06/06 13:16:30;;;;;;;4.00;0.82;;;20.00;98.50;;;;;;5127946;27;20403;-79
2022/06/06 13:19:15;;;;;;;4.38;0.80;;;19.80;99.30;;;;;;5099133;27;20406;-79
2022/06/06 13:21:53;;;;;;;3.90;0.67;;;19.70;99.40;;;;;;5127347;27;20538;-79
2022/06/06 13:24:36;;;;;;;6.15;0.63;;;19.50;99.90;;;;;;5129170;27;20900;-79
2022/06/06 13:27:26;;;;;;;2.90;0.57;;;19.40;99.90;;;;;;5122362;27;20479;-79
2022/06/06 13:29:52;;;;;;;4.63;0.52;;;19.40;99.90;;;;;;5130613;27;20418;-79
2022/06/06 13:32:36;;;;;;;2.70;0.50;;;19.30;99.70;;;;;;5129082;27;20402;-78
2022/06/06 13:35:20;;;;;;;3.38;0.60;;;19.20;99.90;;;;;;5115798;27;20431;-79
2022/06/06 13:38:15;;;;;;;2.92;0.90;;;18.90;99.90;;;;;;5118788;27;20511;-79
2022/06/06 13:40:49;;;;;;;3.28;1.15;;;18.60;99.90;;;;;;5115833;27;20432;-78
2022/06/06 13:44:02;;;;;;;4.35;1.05;;;18.30;99.90;;;;;;5109100;27;20420;-78
2022/06/06 13:46:47;;;;;;;4.03;1.00;;;18.20;99.90;;;;;;5125591;27;20433;-78
2022/06/06 13:49:43;;;;;;;3.38;0.80;;;18.20;99.90;;;;;;5123508;27;20431;-78
2022/06/06 13:52:33;;;;;;;3.08;0.88;;;18.20;99.90;;;;;;5110426;27;20412;-78
2022/06/06 13:55:27;;;;;;;2.85;1.13;;;18.20;99.90;;;;;;5125138;27;20445;-78
2022/06/06 13:58:04;;;;;;;2.93;0.97;;;18.10;99.90;;;;;;5115227;27;20406;-78
2022/06/06 14:00:45;;;;;;;3.75;1.05;;;18.10;99.90;;;;;;5128639;27;20760;-78
2022/06/06 14:03:32;;;;;;;5.20;1.37;;;18.00;99.90;;;;;;5113000;27;20401;-78
2022/06/06 14:06:06;;;;;;;4.00;1.40;;;17.90;99.90;;;;;;5110064;27;20454;-78
2022/06/06 14:08:52;;;;;;;3.63;1.60;;;17.90;99.90;;;;;;5107598;28;21468;-78
2022/06/06 14:11:56;;;;;;;2.97;1.60;;;17.80;99.90;;;;;;5110306;27;20914;-78
2022/06/06 14:14:24;;;;;;;5.00;2.20;;;17.60;99.90;;;;;;5089854;27;20423;-79
2022/06/06 14:17:11;;;;;;;6.70;2.50;;;17.40;99.90;;;;;;5123649;27;20796;-79